This is the latest recevied weather packets stored in our database for station/object EFHK. If no packets are shown the sender has not sent any weather packets the latest 1 day(s).
| Time | Temp. | Humidity | Pressure | Rain* | Wind** | Luminosity | Snow |
|---|---|---|---|---|---|---|---|
| 1778062402 | 10° C | 27% | 1013 hPa | - | - | - | - |
| 1778061803 | 10° C | 27% | 1013 hPa | - | - | - | - |
| 1778060003 | 10° C | 29% | 1013 hPa | - | - | - | - |
| 1778058802 | 8.89° C | 34% | 1012 hPa | - | - | - | - |
| 1778057007 | 7.78° C | 36% | 1012 hPa | - | - | - | - |
| 1778056402 | 7.78° C | 36% | 1012 hPa | - | - | - | - |
| 1778055801 | 7.78° C | 36% | 1012 hPa | - | - | - | - |
| 1778053999 | 8.89° C | 36% | 1012 hPa | - | - | - | - |
| 1778052801 | 8.89° C | 39% | 1012 hPa | - | - | - | - |
| 1778051003 | 6.67° C | 48% | 1012 hPa | - | - | - | - |
| 1778050398 | 6.67° C | 48% | 1012 hPa | - | - | - | - |
| 1778048601 | 6.67° C | 52% | 1012 hPa | - | - | - | - |
| 1778048000 | 6.67° C | 52% | 1011 hPa | - | - | - | - |
| 1778047405 | 6.67° C | 52% | 1011 hPa | - | - | - | - |
| 1778046206 | 5.56° C | 60% | 1011 hPa | - | - | - | - |
| 1778045599 | 5.56° C | 60% | 1011 hPa | - | - | - | - |
| 1778045001 | 5.56° C | 60% | 1011 hPa | - | - | - | - |
| 1778043803 | 3.89° C | 64% | 1011 hPa | - | - | - | - |
| 1778043200 | 3.89° C | 64% | 1011 hPa | - | - | - | - |
| 1778042602 | 2.78° C | 69% | 1010 hPa | - | - | - | - |
| 1778041402 | 2.78° C | 69% | 1010 hPa | - | - | - | - |
| 1778039599 | 1.67° C | 74% | 1010 hPa | - | - | - | - |
| 1778038405 | 0.56° C | 80% | 1010 hPa | - | - | - | - |
| 1778037804 | 0.56° C | 80% | 1010 hPa | - | - | - | - |
| 1778036599 | -1.11° C | 86% | 1010 hPa | - | - | - | - |
* Rain since midnight (hover to see other rain measurements)
** Current wind speed in m/s (hover to see current wind gust speed)